createdAt,value
2018-09-03T00:01:33.703Z,73.81
2018-09-03T00:04:02.911Z,74.14
2018-09-03T00:06:32.056Z,74.84
2018-09-03T00:09:01.682Z,74.28
2018-09-03T00:11:31.750Z,74.47
2018-09-03T00:14:01.774Z,74.17
2018-09-03T00:16:32.098Z,74.22
2018-09-03T00:19:02.037Z,74.67
2018-09-03T00:21:32.167Z,74.50
2018-09-03T00:24:02.330Z,73.69
2018-09-03T00:26:32.474Z,74.60
2018-09-03T00:29:02.598Z,73.90
2018-09-03T00:31:38.004Z,74.37
2018-09-03T00:34:12.374Z,73.71
2018-09-03T00:36:46.883Z,74.61
2018-09-03T00:39:21.706Z,74.38
2018-09-03T00:41:56.167Z,74.29
2018-09-03T00:44:30.492Z,73.87
2018-09-03T00:47:01.747Z,74.72
2018-09-03T00:49:31.530Z,74.81
2018-09-03T00:52:00.723Z,74.65
2018-09-03T00:54:29.873Z,74.36
2018-09-03T00:56:59.031Z,74.29
2018-09-03T00:59:28.194Z,74.51
2018-09-03T01:01:57.342Z,73.75
2018-09-03T01:04:26.506Z,74.04
2018-09-03T01:06:55.658Z,74.30
2018-09-03T01:09:24.901Z,75.07
2018-09-03T01:11:54.042Z,74.80
2018-09-03T01:14:23.206Z,74.70
2018-09-03T01:16:52.350Z,74.26
2018-09-03T01:19:21.527Z,75.02
2018-09-03T01:21:50.682Z,75.48
2018-09-03T01:24:20.254Z,75.95
2018-09-03T01:26:49.403Z,75.72
2018-09-03T01:29:18.622Z,74.46
2018-09-03T01:31:47.774Z,74.92
2018-09-03T01:34:16.930Z,74.79
2018-09-03T01:36:46.078Z,75.08
2018-09-03T01:39:15.246Z,75.11
2018-09-03T01:41:44.390Z,74.71
2018-09-03T01:44:13.587Z,75.13
2018-09-03T01:46:42.729Z,74.28
2018-09-03T01:49:11.919Z,75.31
2018-09-03T01:51:41.751Z,75.39
2018-09-03T01:54:10.929Z,74.49
2018-09-03T01:56:40.085Z,75.16
2018-09-03T01:59:09.261Z,74.69
2018-09-03T02:01:38.420Z,75.44
2018-09-03T02:04:07.839Z,74.94
2018-09-03T02:06:37.067Z,74.81
2018-09-03T02:09:12.354Z,75.30
2018-09-03T02:11:42.146Z,74.85
2018-09-03T02:14:11.307Z,75.03
2018-09-03T02:16:40.458Z,75.59
2018-09-03T02:19:09.643Z,74.88
2018-09-03T02:21:38.798Z,75.73
2018-09-03T02:24:07.975Z,75.15
2018-09-03T02:26:37.727Z,74.83
2018-09-03T02:29:07.955Z,74.51
2018-09-03T02:31:37.944Z,74.40
2018-09-03T02:34:08.067Z,74.69
2018-09-03T02:36:38.221Z,74.30
2018-09-03T02:39:08.749Z,74.16
2018-09-03T02:41:38.439Z,74.83
2018-09-03T02:44:08.566Z,74.92
2018-09-03T02:46:38.668Z,74.63
2018-09-03T02:49:08.916Z,73.53
2018-09-03T02:51:39.063Z,74.22
2018-09-03T02:54:08.223Z,73.28
2018-09-03T02:56:37.379Z,74.05
2018-09-03T02:59:06.586Z,74.18
2018-09-03T03:01:35.747Z,74.08
2018-09-03T03:04:04.914Z,74.25
2018-09-03T03:06:34.071Z,73.72
2018-09-03T03:09:03.279Z,74.51
2018-09-03T03:11:32.428Z,74.11
2018-09-03T03:14:01.587Z,73.95
2018-09-03T03:16:33.794Z,74.49
2018-09-03T03:19:03.195Z,74.48
2018-09-03T03:21:32.350Z,74.13
2018-09-03T03:24:01.563Z,74.73
2018-09-03T03:26:30.728Z,74.98
2018-09-03T03:28:59.872Z,75.12
2018-09-03T03:31:29.116Z,73.83
2018-09-03T03:33:58.304Z,74.65
2018-09-03T03:36:27.463Z,74.36
2018-09-03T03:38:56.632Z,73.94
2018-09-03T03:41:25.907Z,73.90
2018-09-03T03:43:55.060Z,74.75
2018-09-03T03:46:24.223Z,74.02
2018-09-03T03:48:53.423Z,74.32
2018-09-03T03:51:22.592Z,74.26
2018-09-03T03:53:51.742Z,74.70
2018-09-03T03:56:20.897Z,74.36
2018-09-03T03:58:50.091Z,74.84
2018-09-03T04:01:19.293Z,74.32
2018-09-03T04:03:48.447Z,73.90
2018-09-03T04:06:17.608Z,74.05
2018-09-03T04:08:46.764Z,73.31
2018-09-03T04:11:15.943Z,74.06
2018-09-03T04:13:45.102Z,74.20
2018-09-03T04:16:14.260Z,73.29
2018-09-03T04:18:43.447Z,73.80
2018-09-03T04:21:12.623Z,73.89
2018-09-03T04:23:41.795Z,73.01
2018-09-03T04:26:10.955Z,72.97
2018-09-03T04:28:40.107Z,73.63
2018-09-03T04:31:09.272Z,73.58
2018-09-03T04:33:38.423Z,73.72
2018-09-03T04:36:07.605Z,73.66
2018-09-03T04:38:36.821Z,72.85
2018-09-03T04:41:05.935Z,72.94
2018-09-03T04:43:35.105Z,73.43
2018-09-03T04:46:04.272Z,73.77
2018-09-03T04:48:33.419Z,72.99
2018-09-03T04:51:02.607Z,72.97
2018-09-03T04:53:31.755Z,73.43
2018-09-03T04:56:01.028Z,73.44
2018-09-03T04:58:30.175Z,74.04
2018-09-03T05:00:59.339Z,73.07
2018-09-03T05:03:28.499Z,73.23
2018-09-03T05:05:57.718Z,73.43
2018-09-03T05:08:26.855Z,73.19
2018-09-03T05:10:56.012Z,73.33
2018-09-03T05:13:25.172Z,73.09
2018-09-03T05:15:54.335Z,73.87
2018-09-03T05:18:23.500Z,72.96
2018-09-03T05:20:52.658Z,73.73
2018-09-03T05:23:21.878Z,73.06
2018-09-03T05:25:51.047Z,73.04
2018-09-03T05:28:20.206Z,72.88
2018-09-03T05:30:49.674Z,72.62
2018-09-03T05:33:19.809Z,72.53
2018-09-03T05:35:50.069Z,73.04
2018-09-03T05:38:20.243Z,73.35
2018-09-03T05:40:50.292Z,73.31
2018-09-03T05:43:20.503Z,73.14
2018-09-03T05:45:50.408Z,72.58
2018-09-03T05:48:20.480Z,72.72
2018-09-03T05:50:50.489Z,72.53
2018-09-03T05:53:20.621Z,73.16
2018-09-03T05:55:50.546Z,73.52
2018-09-03T05:58:20.695Z,72.93
2018-09-03T06:00:50.872Z,72.84
2018-09-03T06:03:20.847Z,73.12
2018-09-03T06:05:50.881Z,71.85
2018-09-03T06:08:20.950Z,72.25
2018-09-03T06:10:50.975Z,72.50
2018-09-03T06:13:21.562Z,71.91
2018-09-03T06:15:52.937Z,71.74
2018-09-03T06:18:22.355Z,72.14
2018-09-03T06:20:51.519Z,71.71
2018-09-03T06:23:21.395Z,71.62
2018-09-03T06:25:51.457Z,72.47
2018-09-03T06:28:21.447Z,72.83
2018-09-03T06:30:51.531Z,72.43
2018-09-03T06:33:21.564Z,72.17
2018-09-03T06:35:52.931Z,70.94
2018-09-03T06:38:22.110Z,71.83
2018-09-03T06:40:51.759Z,72.26
2018-09-03T06:43:21.803Z,72.61
2018-09-03T06:45:51.959Z,72.23
2018-09-03T06:48:21.978Z,71.68
2018-09-03T06:50:52.075Z,72.15
2018-09-03T06:53:22.206Z,72.21
2018-09-03T06:55:53.163Z,72.66
2018-09-03T06:58:22.362Z,72.27
2018-09-03T07:00:51.526Z,71.39
2018-09-03T07:03:20.691Z,71.61
2018-09-03T07:05:49.839Z,71.83
2018-09-03T07:08:19.004Z,72.62
2018-09-03T07:10:48.143Z,71.26
2018-09-03T07:13:17.323Z,72.10
2018-09-03T07:15:46.479Z,71.58
2018-09-03T07:18:15.766Z,71.90
2018-09-03T07:20:44.963Z,72.27
2018-09-03T07:23:14.284Z,72.37
2018-09-03T07:25:43.431Z,72.20
2018-09-03T07:28:12.723Z,72.36
2018-09-03T07:30:41.878Z,72.60
2018-09-03T07:33:11.047Z,72.12
2018-09-03T07:35:40.256Z,71.78
2018-09-03T07:38:09.369Z,72.09
2018-09-03T07:40:40.282Z,72.06
2018-09-03T07:43:09.527Z,72.80
2018-09-03T07:45:38.699Z,71.78
2018-09-03T07:48:08.256Z,71.43
2018-09-03T07:50:37.416Z,71.74
2018-09-03T07:53:06.567Z,71.59
2018-09-03T07:55:35.711Z,71.17
2018-09-03T07:58:04.895Z,71.96
2018-09-03T08:00:34.055Z,71.52
2018-09-03T08:03:03.436Z,71.68
2018-09-03T08:05:32.575Z,71.83
2018-09-03T08:08:01.723Z,70.64
2018-09-03T08:10:30.887Z,71.23
2018-09-03T08:13:00.198Z,70.95
2018-09-03T08:15:29.211Z,71.68
2018-09-03T08:17:58.367Z,71.42
2018-09-03T08:20:27.588Z,70.94
2018-09-03T08:22:56.741Z,69.75
2018-09-03T08:25:25.924Z,69.97
2018-09-03T08:27:55.083Z,69.63
2018-09-03T08:30:24.244Z,70.07
2018-09-03T08:32:54.735Z,70.95
2018-09-03T08:35:24.891Z,70.51
2018-09-03T08:37:54.867Z,70.34
2018-09-03T08:40:25.029Z,70.30
2018-09-03T08:42:55.044Z,70.33
2018-09-03T08:45:25.166Z,70.20
2018-09-03T08:47:55.363Z,69.47
2018-09-03T08:50:25.420Z,69.80
2018-09-03T08:52:55.439Z,70.11
2018-09-03T08:55:25.493Z,70.27
2018-09-03T08:57:55.555Z,71.20
2018-09-03T09:00:25.628Z,71.13
2018-09-03T09:02:55.699Z,71.21
2018-09-03T09:05:25.767Z,71.45
2018-09-03T09:07:55.835Z,70.75
2018-09-03T09:10:25.891Z,70.62
2018-09-03T09:12:55.975Z,70.68
2018-09-03T09:15:26.044Z,70.98
2018-09-03T09:17:56.139Z,69.73
2018-09-03T09:20:26.231Z,70.65
2018-09-03T09:22:56.460Z,70.05
2018-09-03T09:25:26.375Z,70.26
2018-09-03T09:27:56.388Z,70.17
2018-09-03T09:30:26.516Z,69.47
2018-09-03T09:32:56.532Z,70.45
2018-09-03T09:35:26.699Z,70.65
2018-09-03T09:37:56.928Z,71.66
2018-09-03T09:40:26.782Z,71.55
2018-09-03T09:42:57.793Z,72.72
2018-09-03T09:45:27.075Z,71.79
2018-09-03T09:47:57.091Z,71.80
2018-09-03T09:50:27.109Z,72.24
2018-09-03T09:52:57.116Z,70.85
2018-09-03T09:55:27.224Z,71.50
2018-09-03T09:57:57.455Z,71.09
2018-09-03T10:01:36.571Z,70.21
2018-09-03T10:04:06.016Z,71.03
2018-09-03T10:06:35.264Z,70.37
2018-09-03T10:09:06.051Z,70.71
2018-09-03T10:11:35.253Z,70.26
2018-09-03T10:14:04.455Z,69.68
2018-09-03T10:16:33.645Z,69.49
2018-09-03T10:19:02.836Z,70.15
2018-09-03T10:21:32.028Z,69.67
2018-09-03T10:24:01.256Z,69.73
2018-09-03T10:26:30.437Z,69.67
2018-09-03T10:28:59.631Z,68.76
2018-09-03T10:31:28.832Z,69.83
2018-09-03T10:33:58.416Z,68.81
2018-09-03T10:36:28.456Z,68.68
2018-09-03T10:38:58.555Z,69.27
2018-09-03T10:41:28.673Z,69.61
2018-09-03T10:43:58.792Z,68.99
2018-09-03T10:46:29.305Z,69.58
2018-09-03T10:48:58.928Z,69.35
2018-09-03T10:51:29.015Z,69.46
2018-09-03T10:53:59.079Z,70.89
2018-09-03T10:56:29.184Z,70.03
2018-09-03T10:58:59.264Z,69.16
2018-09-03T11:01:29.382Z,69.14
2018-09-03T11:03:59.371Z,69.10
2018-09-03T11:06:29.528Z,67.81
2018-09-03T11:08:59.488Z,68.70
2018-09-03T11:11:29.572Z,68.94
2018-09-03T11:13:59.668Z,67.33
2018-09-03T11:16:29.756Z,68.83
2018-09-03T11:18:59.848Z,68.26
2018-09-03T11:21:30.106Z,68.09
2018-09-03T11:23:59.977Z,68.19
2018-09-03T11:26:30.072Z,67.70
2018-09-03T11:29:00.261Z,67.70
2018-09-03T11:31:30.171Z,67.62
2018-09-03T11:34:06.992Z,67.41
2018-09-03T11:36:36.652Z,67.54
2018-09-03T11:39:09.215Z,68.15
2018-09-03T11:41:38.475Z,67.77
2018-09-03T11:44:07.852Z,67.55
2018-09-03T11:46:37.780Z,67.94
2018-09-03T11:49:07.332Z,67.20
2018-09-03T11:51:36.515Z,66.81
2018-09-03T11:54:05.723Z,67.80
2018-09-03T11:56:34.947Z,67.05
2018-09-03T11:59:04.103Z,67.56
2018-09-03T12:01:33.325Z,67.55
2018-09-03T12:04:02.484Z,68.33
2018-09-03T12:06:31.698Z,67.83
2018-09-03T12:09:01.624Z,68.46
2018-09-03T12:11:31.882Z,67.90
2018-09-03T12:14:03.712Z,66.62
2018-09-03T12:16:32.928Z,66.78
2018-09-03T12:19:02.108Z,66.89
2018-09-03T12:21:31.971Z,66.93
2018-09-03T12:24:02.068Z,66.92
2018-09-03T12:26:32.217Z,66.89
2018-09-03T12:29:02.288Z,67.05
2018-09-03T12:31:32.264Z,66.46
2018-09-03T12:34:02.380Z,64.84
2018-09-03T12:36:32.546Z,65.14
2018-09-03T12:39:02.588Z,65.11
2018-09-03T12:41:32.655Z,65.34
2018-09-03T12:44:02.795Z,64.24
2018-09-03T12:46:32.917Z,64.94
2018-09-03T12:49:02.887Z,65.07
2018-09-03T12:51:33.032Z,64.82
2018-09-03T12:54:03.184Z,64.69
2018-09-03T12:56:33.244Z,63.94
2018-09-03T12:59:03.271Z,63.72
2018-09-03T13:01:33.352Z,63.99
2018-09-03T13:04:03.580Z,62.65
2018-09-03T13:06:33.632Z,62.48
2018-09-03T13:09:04.368Z,62.48
2018-09-03T13:11:34.116Z,62.95
2018-09-03T13:14:04.239Z,62.37
2018-09-03T13:16:40.744Z,62.96
2018-09-03T13:19:09.925Z,61.95
2018-09-03T13:21:39.088Z,62.50
2018-09-03T13:24:08.436Z,61.49
2018-09-03T13:26:37.620Z,61.60
2018-09-03T13:29:06.892Z,62.04
2018-09-03T13:31:36.104Z,61.79
2018-09-03T13:34:05.307Z,61.54
2018-09-03T13:36:34.769Z,61.02
2018-09-03T13:39:06.466Z,61.42
2018-09-03T13:41:35.718Z,60.80
2018-09-03T13:44:05.103Z,59.77
2018-09-03T13:46:35.155Z,60.22
2018-09-03T13:49:11.515Z,60.64
2018-09-03T13:51:40.688Z,60.84
2018-09-03T13:54:09.907Z,60.45
2018-09-03T13:56:39.410Z,59.67
2018-09-03T13:59:08.616Z,60.42
2018-09-03T14:01:37.788Z,60.68
2018-09-03T14:04:06.971Z,61.30
2018-09-03T14:06:36.460Z,59.05
2018-09-03T14:09:08.189Z,59.87
2018-09-03T14:11:37.458Z,60.92
2018-09-03T14:14:06.622Z,59.87
2018-09-03T14:16:36.411Z,60.88
2018-09-03T14:19:06.712Z,60.67
2018-09-03T14:21:36.657Z,59.96
2018-09-03T14:24:07.276Z,60.19
2018-09-03T14:26:36.876Z,60.23
2018-09-03T14:29:19.696Z,60.45
2018-09-03T14:31:48.886Z,59.83
2018-09-03T14:34:18.122Z,60.20
2018-09-03T14:36:47.961Z,60.02
2018-09-03T14:39:19.248Z,60.20
2018-09-03T14:41:48.475Z,59.84
2018-09-03T14:44:17.668Z,60.38
2018-09-03T14:46:52.551Z,60.15
2018-09-03T14:49:21.845Z,59.91
2018-09-03T14:51:51.074Z,60.27
2018-09-03T14:54:20.312Z,60.38
2018-09-03T14:56:49.493Z,60.80
2018-09-03T14:59:18.688Z,60.08
2018-09-03T15:01:47.859Z,60.01
2018-09-03T15:04:17.132Z,60.41
2018-09-03T15:06:46.262Z,60.01
2018-09-03T15:09:15.456Z,59.76
2018-09-03T15:11:44.655Z,59.71
2018-09-03T15:14:13.928Z,59.93
2018-09-03T15:16:43.139Z,58.55
2018-09-03T15:19:12.341Z,58.97
2018-09-03T15:21:41.644Z,59.30
2018-09-03T15:24:10.835Z,59.56
2018-09-03T15:26:40.151Z,60.59
2018-09-03T15:29:09.351Z,60.51
2018-09-03T15:31:39.391Z,60.00
2018-09-03T15:34:09.459Z,59.79
2018-09-03T15:36:39.613Z,59.63
2018-09-03T15:39:11.788Z,59.34
2018-09-03T15:41:44.875Z,59.21
2018-09-03T15:44:14.089Z,59.94
2018-09-03T15:46:43.291Z,59.81
2018-09-03T15:49:12.476Z,60.26
2018-09-03T15:51:41.665Z,59.77
2018-09-03T15:54:10.952Z,59.65
2018-09-03T15:56:40.287Z,60.04
2018-09-03T15:59:10.328Z,59.33
2018-09-03T16:01:40.516Z,59.82
2018-09-03T16:04:10.488Z,60.16
2018-09-03T16:06:40.587Z,59.20
2018-09-03T16:09:11.365Z,59.08
2018-09-03T16:11:40.927Z,59.89
2018-09-03T16:14:11.004Z,59.75
2018-09-03T16:16:41.132Z,60.20
2018-09-03T16:19:11.248Z,58.94
2018-09-03T16:21:41.228Z,58.91
2018-09-03T16:24:11.352Z,58.00
2018-09-03T16:26:41.453Z,58.56
2018-09-03T16:29:11.581Z,59.10
2018-09-03T16:31:41.616Z,58.53
2018-09-03T16:34:11.699Z,60.14
2018-09-03T16:36:42.028Z,60.44
2018-09-03T16:39:11.863Z,59.52
2018-09-03T16:41:42.088Z,59.97
2018-09-03T16:44:12.116Z,60.49
2018-09-03T16:46:42.172Z,60.83
2018-09-03T16:49:12.363Z,60.24
2018-09-03T16:51:42.532Z,60.01
2018-09-03T16:54:12.505Z,58.95
2018-09-03T16:56:42.657Z,59.69
2018-09-03T16:59:12.890Z,59.44
2018-09-03T17:01:42.850Z,59.17
2018-09-03T17:04:12.987Z,58.85
2018-09-03T17:06:43.068Z,57.86
2018-09-03T17:09:13.095Z,57.97
2018-09-03T17:11:43.388Z,57.84
2018-09-03T17:14:13.598Z,57.73
2018-09-03T17:16:43.439Z,58.29
2018-09-03T17:19:13.539Z,60.01
2018-09-03T17:21:43.727Z,60.26
2018-09-03T17:24:13.724Z,59.53
2018-09-03T17:26:44.544Z,59.88
2018-09-03T17:29:14.032Z,59.16
2018-09-03T17:31:44.183Z,60.18
2018-09-03T17:34:14.143Z,59.82
2018-09-03T17:36:44.291Z,59.76
2018-09-03T17:39:14.395Z,59.63
2018-09-03T17:41:51.354Z,60.58
2018-09-03T17:44:20.604Z,60.25
2018-09-03T17:46:49.829Z,61.21
2018-09-03T17:49:19.010Z,61.18
2018-09-03T17:51:48.253Z,60.80
2018-09-03T17:54:17.456Z,61.97
2018-09-03T17:56:46.647Z,61.78
2018-09-03T17:59:15.922Z,61.54
2018-09-03T18:01:45.177Z,61.99
2018-09-03T18:04:15.275Z,61.33
2018-09-03T18:06:46.513Z,61.43
2018-09-03T18:09:15.778Z,62.21
2018-09-03T18:11:45.631Z,61.76
2018-09-03T18:14:15.699Z,62.82
2018-09-03T18:16:45.928Z,63.45
2018-09-03T18:19:15.980Z,64.13
2018-09-03T18:21:46.192Z,63.33
2018-09-03T18:24:16.096Z,63.63
2018-09-03T18:26:46.335Z,64.37
2018-09-03T18:29:16.320Z,64.42
2018-09-03T18:31:46.432Z,64.59
2018-09-03T18:34:16.508Z,63.73
2018-09-03T18:36:46.724Z,64.29
2018-09-03T18:39:16.812Z,64.64
2018-09-03T18:41:47.601Z,64.08
2018-09-03T18:44:17.012Z,64.28
2018-09-03T18:46:47.231Z,64.32
2018-09-03T18:49:17.179Z,64.29
2018-09-03T18:51:47.361Z,65.09
2018-09-03T18:54:17.500Z,64.78
2018-09-03T18:56:47.466Z,64.65
2018-09-03T18:59:17.559Z,64.58
2018-09-03T19:01:47.671Z,65.29
2018-09-03T19:04:17.660Z,64.21
2018-09-03T19:06:47.735Z,64.83
2018-09-03T19:09:17.763Z,64.19
2018-09-03T19:11:47.791Z,65.20
2018-09-03T19:14:17.892Z,65.00
2018-09-03T19:16:48.144Z,64.50
2018-09-03T19:19:18.096Z,64.19
2018-09-03T19:21:48.087Z,64.32
2018-09-03T19:24:18.232Z,65.08
2018-09-03T19:26:48.207Z,65.43
2018-09-03T19:29:18.208Z,65.67
2018-09-03T19:31:48.210Z,66.06
2018-09-03T19:34:18.338Z,66.37
2018-09-03T19:36:48.363Z,66.90
2018-09-03T19:39:18.359Z,67.02
2018-09-03T19:41:48.413Z,66.46
2018-09-03T19:44:18.555Z,66.87
2018-09-03T19:46:48.681Z,66.81
2018-09-03T19:49:18.544Z,66.52
2018-09-03T19:51:48.575Z,66.33
2018-09-03T19:54:18.693Z,66.78
2018-09-03T19:56:48.687Z,66.06
2018-09-03T19:59:18.720Z,66.95
2018-09-03T20:01:48.861Z,66.40
2018-09-03T20:04:18.836Z,66.86
2018-09-03T20:06:48.983Z,66.46
2018-09-03T20:09:19.008Z,66.99
2018-09-03T20:11:49.019Z,67.74
2018-09-03T20:14:19.130Z,66.56
2018-09-03T20:16:49.179Z,66.77
2018-09-03T20:19:19.171Z,67.35
2018-09-03T20:21:49.163Z,66.82
2018-09-03T20:24:19.555Z,67.32
2018-09-03T20:26:49.364Z,66.93
2018-09-03T20:29:19.359Z,66.86
2018-09-03T20:31:49.442Z,66.86
2018-09-03T20:34:19.528Z,67.37
2018-09-03T20:36:49.567Z,67.16
2018-09-03T20:39:19.589Z,66.81
2018-09-03T20:41:49.660Z,67.10
2018-09-03T20:44:19.729Z,66.83
2018-09-03T20:46:49.726Z,67.14
2018-09-03T20:49:19.755Z,67.33
2018-09-03T20:51:48.929Z,67.36
2018-09-03T20:54:18.098Z,66.83
2018-09-03T20:56:47.271Z,67.15
2018-09-03T20:59:16.509Z,67.35
2018-09-03T21:01:45.672Z,68.07
2018-09-03T21:04:14.864Z,67.60
2018-09-03T21:06:44.015Z,67.90
2018-09-03T21:09:13.299Z,68.55
2018-09-03T21:11:42.455Z,67.86
2018-09-03T21:14:11.632Z,67.46
2018-09-03T21:16:40.819Z,67.83
2018-09-03T21:19:09.990Z,68.66
2018-09-03T21:21:39.151Z,68.11
2018-09-03T21:24:08.323Z,68.66
2018-09-03T21:26:37.500Z,67.65
2018-09-03T21:29:06.702Z,68.52
2018-09-03T21:31:35.899Z,67.77
2018-09-03T21:34:05.092Z,68.53
2018-09-03T21:36:34.279Z,68.10
2018-09-03T21:39:03.501Z,68.76
2018-09-03T21:41:32.654Z,68.19
2018-09-03T21:44:01.944Z,68.39
2018-09-03T21:46:31.121Z,68.94
2018-09-03T21:49:06.915Z,68.13
2018-09-03T21:51:36.100Z,67.90
2018-09-03T21:54:05.497Z,69.32
2018-09-03T21:56:34.667Z,68.57
2018-09-03T21:59:03.839Z,68.82
2018-09-03T22:01:33.001Z,68.05
2018-09-03T22:04:02.179Z,67.52
2018-09-03T22:06:32.188Z,67.27
2018-09-03T22:09:02.112Z,68.26
2018-09-03T22:11:31.296Z,67.84
2018-09-03T22:14:00.520Z,68.45
2018-09-03T22:16:29.707Z,68.80
2018-09-03T22:18:58.943Z,68.30
2018-09-03T22:21:28.122Z,68.78
2018-09-03T22:23:57.999Z,69.22
2018-09-03T22:26:28.003Z,68.67
2018-09-03T22:28:58.132Z,68.43
2018-09-03T22:31:28.193Z,68.86
2018-09-03T22:33:58.167Z,68.66
2018-09-03T22:36:28.252Z,68.55
2018-09-03T22:38:58.416Z,68.55
2018-09-03T22:41:28.392Z,68.42
2018-09-03T22:43:58.523Z,68.72
2018-09-03T22:46:28.550Z,68.73
2018-09-03T22:48:58.679Z,69.21
2018-09-03T22:51:28.676Z,68.92
2018-09-03T22:53:58.781Z,69.64
2018-09-03T22:56:28.916Z,69.52
2018-09-03T22:58:58.924Z,69.08
2018-09-03T23:01:29.062Z,67.92
2018-09-03T23:03:59.059Z,68.71
2018-09-03T23:06:29.203Z,68.78
2018-09-03T23:08:59.223Z,69.57
2018-09-03T23:11:29.324Z,69.61
2018-09-03T23:13:59.276Z,69.36
2018-09-03T23:16:29.401Z,69.62
2018-09-03T23:18:59.484Z,69.14
2018-09-03T23:21:29.515Z,69.10
2018-09-03T23:23:59.620Z,69.71
2018-09-03T23:26:29.758Z,68.86
2018-09-03T23:28:59.703Z,70.03
2018-09-03T23:31:29.835Z,69.03
2018-09-03T23:33:59.902Z,69.48
2018-09-03T23:36:30.125Z,70.01
2018-09-03T23:39:00.046Z,69.79
2018-09-03T23:41:30.160Z,69.68
2018-09-03T23:44:00.292Z,68.93
2018-09-03T23:46:30.308Z,68.98
2018-09-03T23:49:00.311Z,69.10
2018-09-03T23:51:30.358Z,69.34
2018-09-03T23:54:00.442Z,69.20
2018-09-03T23:56:31.680Z,69.42
2018-09-03T23:59:00.872Z,68.80
